createdAt,value
2022-09-28T00:00:16.878Z,98010.01
2022-09-28T00:01:50.612Z,98008.17
2022-09-28T00:03:17.350Z,98004.73
2022-09-28T00:04:25.347Z,98008.98
2022-09-28T00:05:35.252Z,98010.79
2022-09-28T00:06:43.826Z,98011.19
2022-09-28T00:07:52.446Z,98016.69
2022-09-28T00:09:02.702Z,98015.77
2022-09-28T00:10:11.205Z,98015.78
2022-09-28T00:11:21.921Z,98014.33
2022-09-28T00:12:32.092Z,98019.53
2022-09-28T00:13:39.676Z,98019.86
2022-09-28T00:14:48.546Z,98023.16
2022-09-28T00:16:06.981Z,98025.37
2022-09-28T00:17:18.040Z,98024.65
2022-09-28T00:18:25.689Z,98024.44
2022-09-28T00:19:33.306Z,98027.83
2022-09-28T00:20:41.542Z,98027.72
2022-09-28T00:21:49.484Z,98028.02
2022-09-28T00:22:56.965Z,98025.34
2022-09-28T00:24:17.735Z,98031.39
2022-09-28T00:25:29.292Z,98027.45
2022-09-28T00:26:36.542Z,98026.23
2022-09-28T00:27:45.607Z,98030.81
2022-09-28T00:28:57.276Z,98030.16
2022-09-28T00:30:08.557Z,98025.31
2022-09-28T00:31:16.585Z,98023.19
2022-09-28T00:32:26.089Z,98022.60
2022-09-28T00:33:33.910Z,98017.91
2022-09-28T00:34:44.468Z,98023.61
2022-09-28T00:35:59.992Z,98026.85
2022-09-28T00:37:07.958Z,98031.23
2022-09-28T00:38:18.146Z,98027.89
2022-09-28T00:39:28.584Z,98028.30
2022-09-28T00:40:37.102Z,98024.83
2022-09-28T00:41:44.907Z,98031.24
2022-09-28T00:42:53.695Z,98028.50
2022-09-28T00:44:41.615Z,98032.41
2022-09-28T00:45:54.600Z,98030.83
2022-09-28T00:47:05.146Z,98031.48
2022-09-28T00:48:13.046Z,98030.61
2022-09-28T00:49:21.886Z,98033.91
2022-09-28T00:50:37.384Z,98036.60
2022-09-28T00:51:45.437Z,98041.35
2022-09-28T00:53:14.721Z,98040.20
2022-09-28T00:54:23.986Z,98041.69
2022-09-28T00:55:41.064Z,98040.47
2022-09-28T00:56:49.205Z,98042.32
2022-09-28T00:57:59.560Z,98042.15
2022-09-28T00:59:07.330Z,98047.95
2022-09-28T01:00:15.955Z,98044.60
2022-09-28T01:01:24.216Z,98045.62
2022-09-28T01:02:32.160Z,98045.02
2022-09-28T01:03:43.018Z,98050.79
2022-09-28T01:04:52.098Z,98055.14
2022-09-28T01:06:01.642Z,98057.00
2022-09-28T01:07:10.283Z,98056.33
2022-09-28T01:08:18.037Z,98063.48
2022-09-28T01:09:26.625Z,98061.38
2022-09-28T01:10:34.819Z,98057.72
2022-09-28T01:11:44.285Z,98063.40
2022-09-28T01:12:52.562Z,98068.55
2022-09-28T01:14:04.661Z,98066.02
2022-09-28T01:15:15.318Z,98069.98
2022-09-28T01:16:40.218Z,98070.39
2022-09-28T01:18:20.070Z,98075.88
2022-09-28T01:19:57.641Z,98073.77
2022-09-28T01:21:25.307Z,98073.45
2022-09-28T01:23:15.105Z,98076.84
2022-09-28T01:24:42.813Z,98076.17
2022-09-28T01:26:20.539Z,98082.10
2022-09-28T01:28:06.974Z,98087.42
2022-09-28T01:29:50.984Z,98090.78
2022-09-28T01:31:09.277Z,98096.67
2022-09-28T01:32:37.719Z,98103.31
2022-09-28T01:33:59.325Z,98104.46
2022-09-28T01:35:17.072Z,98105.25
2022-09-28T01:36:39.072Z,98107.56
2022-09-28T01:37:54.273Z,98109.33
2022-09-28T01:39:12.974Z,98110.52
2022-09-28T01:40:24.087Z,98106.96
2022-09-28T01:41:34.583Z,98109.73
2022-09-28T01:42:44.470Z,98109.89
2022-09-28T01:43:59.456Z,98110.70
2022-09-28T01:45:31.281Z,98113.52
2022-09-28T01:46:50.967Z,98117.04
2022-09-28T01:48:02.937Z,98115.09
2022-09-28T01:49:22.435Z,98119.29
2022-09-28T01:50:32.942Z,98120.36
2022-09-28T01:51:56.600Z,98122.27
2022-09-28T01:53:20.124Z,98122.65
2022-09-28T01:54:39.295Z,98124.80
2022-09-28T01:55:50.418Z,98127.88
2022-09-28T01:57:08.517Z,98129.08
2022-09-28T01:58:27.702Z,98129.74
2022-09-28T01:59:38.864Z,98134.77
2022-09-28T02:00:50.837Z,98134.48
2022-09-28T02:02:09.933Z,98137.64
2022-09-28T02:03:25.881Z,98138.61
2022-09-28T02:04:49.716Z,98137.38
2022-09-28T02:06:11.259Z,98140.42
2022-09-28T02:07:44.876Z,98140.30
2022-09-28T02:09:03.338Z,98142.08
2022-09-28T02:10:44.831Z,98142.66
2022-09-28T02:11:56.955Z,98144.86
2022-09-28T02:13:12.295Z,98146.81
2022-09-28T02:14:21.585Z,98148.40
2022-09-28T02:15:44.857Z,98149.64
2022-09-28T02:16:58.483Z,98147.83
2022-09-28T02:18:13.405Z,98153.54
2022-09-28T02:19:28.693Z,98154.30
2022-09-28T02:20:42.086Z,98154.17
2022-09-28T02:22:32.954Z,98158.77
2022-09-28T02:23:43.944Z,98161.18
2022-09-28T02:25:00.889Z,98160.25
2022-09-28T02:26:11.464Z,98163.95
2022-09-28T02:27:45.704Z,98164.45
2022-09-28T02:28:55.151Z,98167.20
2022-09-28T02:30:05.758Z,98167.07
2022-09-28T02:31:17.423Z,98169.23
2022-09-28T02:32:26.429Z,98168.05
2022-09-28T02:33:40.244Z,98177.13
2022-09-28T02:34:49.342Z,98173.67
2022-09-28T02:36:01.327Z,98177.95
2022-09-28T02:37:11.313Z,98181.08
2022-09-28T02:38:22.345Z,98184.30
2022-09-28T02:39:33.310Z,98185.45
2022-09-28T02:40:42.433Z,98189.91
2022-09-28T02:42:15.790Z,98192.84
2022-09-28T02:43:27.676Z,98192.91
2022-09-28T02:44:52.278Z,98195.77
2022-09-28T02:46:26.001Z,98200.16
2022-09-28T02:48:05.557Z,98206.83
2022-09-28T02:49:28.338Z,98215.02
2022-09-28T02:50:53.190Z,98216.68
2022-09-28T02:52:33.030Z,98219.70
2022-09-28T02:53:56.125Z,98227.23
2022-09-28T02:55:06.985Z,98233.14
2022-09-28T02:56:39.087Z,98234.32
2022-09-28T02:58:11.339Z,98237.79
2022-09-28T02:59:28.886Z,98242.48
2022-09-28T03:00:43.302Z,98244.02
2022-09-28T03:02:16.742Z,98245.17
2022-09-28T03:04:18.974Z,98248.12
2022-09-28T03:06:02.728Z,98247.45
2022-09-28T03:07:40.982Z,98251.65
2022-09-28T03:09:10.331Z,98253.27
2022-09-28T03:10:25.275Z,98259.92
2022-09-28T03:11:40.460Z,98261.09
2022-09-28T03:12:49.547Z,98265.36
2022-09-28T03:14:00.099Z,98269.36
2022-09-28T03:15:24.824Z,98269.46
2022-09-28T03:16:34.981Z,98275.08
2022-09-28T03:17:43.065Z,98274.13
2022-09-28T03:18:55.475Z,98275.69
2022-09-28T03:20:07.450Z,98278.00
2022-09-28T03:21:17.244Z,98281.42
2022-09-28T03:22:26.813Z,98281.64
2022-09-28T03:23:35.509Z,98279.44
2022-09-28T03:24:43.833Z,98280.66
2022-09-28T03:25:51.805Z,98280.38
2022-09-28T03:27:00.909Z,98284.69
2022-09-28T03:28:13.112Z,98285.47
2022-09-28T03:29:22.675Z,98289.58
2022-09-28T03:30:37.476Z,98288.54
2022-09-28T03:31:46.482Z,98288.84
2022-09-28T03:33:04.815Z,98292.71
2022-09-28T03:34:14.639Z,98295.84
2022-09-28T03:35:25.706Z,98295.27
2022-09-28T03:36:35.392Z,98293.66
2022-09-28T03:37:45.709Z,98298.39
2022-09-28T03:39:01.963Z,98300.77
2022-09-28T03:40:12.159Z,98306.33
2022-09-28T03:41:21.862Z,98308.15
2022-09-28T03:42:33.092Z,98305.60
2022-09-28T03:43:42.581Z,98310.99
2022-09-28T03:44:52.320Z,98313.27
2022-09-28T03:46:02.317Z,98313.61
2022-09-28T03:47:12.689Z,98315.88
2022-09-28T03:48:31.905Z,98318.73
2022-09-28T03:49:43.742Z,98322.00
2022-09-28T03:51:00.146Z,98325.90
2022-09-28T03:52:10.365Z,98326.73
2022-09-28T03:53:22.246Z,98330.52
2022-09-28T03:54:32.609Z,98333.68
2022-09-28T03:55:40.930Z,98337.58
2022-09-28T03:56:53.289Z,98336.50
2022-09-28T03:58:04.261Z,98339.79
2022-09-28T03:59:19.849Z,98340.61
2022-09-28T04:00:34.084Z,98341.55
2022-09-28T04:01:43.675Z,98340.88
2022-09-28T04:02:53.298Z,98342.69
2022-09-28T04:04:04.944Z,98343.86
2022-09-28T04:05:13.964Z,98341.73
2022-09-28T04:06:24.381Z,98343.73
2022-09-28T04:07:34.380Z,98343.96
2022-09-28T04:08:45.230Z,98345.27
2022-09-28T04:09:53.490Z,98346.52
2022-09-28T04:11:08.980Z,98352.09
2022-09-28T04:12:22.084Z,98353.31
2022-09-28T04:13:31.869Z,98355.37
2022-09-28T04:14:40.232Z,98356.65
2022-09-28T04:16:01.895Z,98359.63
2022-09-28T04:17:13.700Z,98362.39
2022-09-28T04:18:22.935Z,98362.23
2022-09-28T04:19:51.605Z,98361.23
2022-09-28T04:21:22.738Z,98362.91
2022-09-28T04:22:39.151Z,98360.09
2022-09-28T04:23:47.153Z,98362.45
2022-09-28T04:24:56.417Z,98363.41
2022-09-28T04:26:07.023Z,98363.88
2022-09-28T04:27:37.253Z,98365.29
2022-09-28T04:29:06.781Z,98366.35
2022-09-28T04:30:20.862Z,98368.41
2022-09-28T04:31:32.405Z,98370.62
2022-09-28T04:32:40.703Z,98371.52
2022-09-28T04:33:52.208Z,98370.45
2022-09-28T04:35:01.044Z,98373.54
2022-09-28T04:36:11.162Z,98373.72
2022-09-28T04:37:21.671Z,98375.69
2022-09-28T04:38:51.620Z,98376.12
2022-09-28T04:40:06.318Z,98373.04
2022-09-28T04:41:15.131Z,98373.34
2022-09-28T04:42:24.052Z,98375.66
2022-09-28T04:43:36.103Z,98377.16
2022-09-28T04:44:43.711Z,98375.32
2022-09-28T04:45:53.416Z,98376.95
2022-09-28T04:47:05.436Z,98376.25
2022-09-28T04:48:14.665Z,98375.39
2022-09-28T04:49:44.765Z,98379.13
2022-09-28T04:51:01.515Z,98380.98
2022-09-28T04:52:15.808Z,98378.47
2022-09-28T04:53:32.332Z,98381.95
2022-09-28T04:54:43.471Z,98383.63
2022-09-28T04:56:07.828Z,98383.85
2022-09-28T04:57:19.891Z,98386.55
2022-09-28T04:58:28.172Z,98387.63
2022-09-28T04:59:39.770Z,98389.73
2022-09-28T05:00:53.284Z,98392.38
2022-09-28T05:02:31.359Z,98392.72
2022-09-28T05:04:03.526Z,98396.30
2022-09-28T05:05:32.183Z,98398.15
2022-09-28T05:07:02.920Z,98399.02
2022-09-28T05:08:15.349Z,98401.87
2022-09-28T05:09:25.067Z,98403.77
2022-09-28T05:10:36.561Z,98403.82
2022-09-28T05:11:45.479Z,98401.95
2022-09-28T05:12:59.074Z,98403.63
2022-09-28T05:14:12.659Z,98409.30
2022-09-28T05:15:23.392Z,98408.27
2022-09-28T05:16:35.279Z,98410.98
2022-09-28T05:18:15.963Z,98410.27
2022-09-28T05:19:36.560Z,98409.08
2022-09-28T05:20:44.872Z,98408.00
2022-09-28T05:21:53.259Z,98408.73
2022-09-28T05:23:02.401Z,98405.74
2022-09-28T05:24:12.965Z,98401.83
2022-09-28T05:25:23.392Z,98406.48
2022-09-28T05:26:45.437Z,98403.60
2022-09-28T05:27:59.753Z,98404.27
2022-09-28T05:29:37.900Z,98404.14
2022-09-28T05:31:20.578Z,98402.88
2022-09-28T05:32:57.648Z,98404.06
2022-09-28T05:34:24.600Z,98404.81
2022-09-28T05:35:38.142Z,98407.97
2022-09-28T05:36:47.436Z,98403.91
2022-09-28T05:37:56.899Z,98402.89
2022-09-28T05:39:06.482Z,98404.40
2022-09-28T05:40:18.385Z,98407.15
2022-09-28T05:41:27.806Z,98406.80
2022-09-28T05:42:36.783Z,98409.73
2022-09-28T05:43:45.532Z,98411.94
2022-09-28T05:44:55.037Z,98406.83
2022-09-28T05:46:04.197Z,98408.36
2022-09-28T05:47:13.472Z,98411.05
2022-09-28T05:48:23.378Z,98412.98
2022-09-28T05:49:33.463Z,98413.70
2022-09-28T05:50:41.980Z,98416.62
2022-09-28T05:51:49.994Z,98420.63
2022-09-28T05:53:02.479Z,98423.26
2022-09-28T05:54:12.880Z,98424.36
2022-09-28T05:55:25.703Z,98424.17
2022-09-28T05:56:34.529Z,98424.29
2022-09-28T05:57:46.068Z,98424.14
2022-09-28T05:58:57.745Z,98424.82
2022-09-28T06:00:13.674Z,98427.64
2022-09-28T06:01:24.179Z,98427.71
2022-09-28T06:02:33.290Z,98429.91
2022-09-28T06:03:42.149Z,98428.72
2022-09-28T06:04:52.881Z,98429.70
2022-09-28T06:06:05.555Z,98432.73
2022-09-28T06:07:14.355Z,98434.83
2022-09-28T06:08:24.452Z,98435.00
2022-09-28T06:09:43.975Z,98435.77
2022-09-28T06:11:14.811Z,98433.11
2022-09-28T06:12:27.542Z,98439.56
2022-09-28T06:13:42.222Z,98441.11
2022-09-28T06:14:54.232Z,98437.05
2022-09-28T06:16:09.722Z,98434.92
2022-09-28T06:17:20.831Z,98435.04
2022-09-28T06:18:38.619Z,98431.55
2022-09-28T06:20:08.809Z,98429.81
2022-09-28T06:21:38.703Z,98433.25
2022-09-28T06:22:47.437Z,98433.39
2022-09-28T06:23:59.647Z,98435.06
2022-09-28T06:25:09.456Z,98434.15
2022-09-28T06:26:19.861Z,98431.09
2022-09-28T06:27:31.863Z,98432.83
2022-09-28T06:28:40.029Z,98432.79
2022-09-28T06:29:48.225Z,98436.11
2022-09-28T06:30:57.044Z,98434.36
2022-09-28T06:32:09.590Z,98432.55
2022-09-28T06:33:21.131Z,98432.55
2022-09-28T06:34:32.172Z,98430.38
2022-09-28T06:35:43.914Z,98427.59
2022-09-28T06:36:52.925Z,98426.98
2022-09-28T06:38:02.523Z,98426.77
2022-09-28T06:39:12.149Z,98424.04
2022-09-28T06:40:25.038Z,98423.45
2022-09-28T06:41:35.531Z,98422.14
2022-09-28T06:43:12.086Z,98423.83
2022-09-28T06:44:41.560Z,98420.52
2022-09-28T06:46:24.378Z,98416.24
2022-09-28T06:47:59.227Z,98412.59
2022-09-28T06:49:19.565Z,98410.02
2022-09-28T06:50:48.888Z,98406.96
2022-09-28T06:52:17.394Z,98414.55
2022-09-28T06:53:46.628Z,98415.52
2022-09-28T06:55:13.994Z,98412.54
2022-09-28T06:56:29.395Z,98412.48
2022-09-28T06:57:42.460Z,98412.04
2022-09-28T06:58:51.371Z,98413.18
2022-09-28T07:00:00.913Z,98414.17
2022-09-28T07:01:12.064Z,98415.80
2022-09-28T07:02:39.223Z,98414.54
2022-09-28T07:04:12.162Z,98415.69
2022-09-28T07:05:44.953Z,98416.13
2022-09-28T07:07:13.724Z,98415.31
2022-09-28T07:09:07.723Z,98415.80
2022-09-28T07:10:44.529Z,98412.63
2022-09-28T07:12:15.509Z,98413.52
2022-09-28T07:13:49.877Z,98415.20
2022-09-28T07:15:03.837Z,98414.06
2022-09-28T07:16:14.820Z,98412.91
2022-09-28T07:17:26.208Z,98411.54
2022-09-28T07:18:37.167Z,98410.83
2022-09-28T07:19:45.505Z,98409.41
2022-09-28T07:20:55.883Z,98411.75
2022-09-28T07:22:07.690Z,98411.41
2022-09-28T07:23:19.679Z,98411.40
2022-09-28T07:24:49.282Z,98411.67
2022-09-28T07:26:24.346Z,98413.23
2022-09-28T07:28:02.137Z,98412.55
2022-09-28T07:29:31.694Z,98410.66
2022-09-28T07:31:05.033Z,98411.73
2022-09-28T07:32:27.386Z,98407.63
2022-09-28T07:33:43.642Z,98406.69
2022-09-28T07:35:02.427Z,98407.27
2022-09-28T07:36:36.532Z,98410.04
2022-09-28T07:37:44.745Z,98409.91
2022-09-28T07:38:53.369Z,98404.44
2022-09-28T07:40:23.560Z,98404.54
2022-09-28T07:41:35.528Z,98405.22
2022-09-28T07:42:52.327Z,98402.49
2022-09-28T07:44:08.786Z,98400.80
2022-09-28T07:45:22.543Z,98403.12
2022-09-28T07:46:33.518Z,98399.02
2022-09-28T07:47:49.602Z,98398.39
2022-09-28T07:49:24.357Z,98396.79
2022-09-28T07:51:01.632Z,98395.54
2022-09-28T07:52:19.101Z,98394.55
2022-09-28T07:54:05.845Z,98394.71
2022-09-28T07:55:28.048Z,98397.11
2022-09-28T07:56:50.449Z,98398.46
2022-09-28T07:58:23.102Z,98400.52
2022-09-28T07:59:43.193Z,98401.75
2022-09-28T08:01:14.615Z,98400.05
2022-09-28T08:02:24.307Z,98402.52
2022-09-28T08:03:33.529Z,98404.05
2022-09-28T08:04:43.128Z,98404.95
2022-09-28T08:05:51.300Z,98402.08
2022-09-28T08:07:02.168Z,98404.78
2022-09-28T08:08:11.903Z,98404.95
2022-09-28T08:09:21.243Z,98405.48
2022-09-28T08:10:52.576Z,98404.59
2022-09-28T08:12:24.570Z,98408.33
2022-09-28T08:13:49.461Z,98404.38
2022-09-28T08:15:19.164Z,98403.88
2022-09-28T08:18:07.343Z,98402.75
2022-09-28T08:19:17.408Z,98401.85
2022-09-28T08:20:48.097Z,98400.67
2022-09-28T08:22:00.468Z,98399.54
2022-09-28T08:23:10.822Z,98399.45
2022-09-28T08:24:22.497Z,98402.98
2022-09-28T08:25:33.930Z,98404.85
2022-09-28T08:26:44.988Z,98403.66
2022-09-28T08:27:57.825Z,98405.30
2022-09-28T08:29:08.174Z,98405.78
2022-09-28T08:30:40.269Z,98404.69
2022-09-28T08:32:23.897Z,98403.59
2022-09-28T08:33:55.999Z,98407.44
2022-09-28T08:35:27.838Z,98407.48
2022-09-28T08:37:06.862Z,98407.83
2022-09-28T08:38:34.725Z,98405.90
2022-09-28T08:40:04.863Z,98406.49
2022-09-28T08:41:51.169Z,98402.42
2022-09-28T08:43:32.930Z,98404.75
2022-09-28T08:45:00.519Z,98405.96
2022-09-28T08:46:47.305Z,98404.59
2022-09-28T08:48:45.705Z,98406.67
2022-09-28T08:50:29.431Z,98405.75
2022-09-28T08:51:52.138Z,98406.86
2022-09-28T08:53:27.532Z,98405.77
2022-09-28T08:54:50.818Z,98407.92
2022-09-28T08:56:13.731Z,98409.45
2022-09-28T08:57:25.727Z,98407.33
2022-09-28T08:58:45.551Z,98407.98
2022-09-28T09:00:01.701Z,98406.39
2022-09-28T09:01:18.361Z,98410.14
2022-09-28T09:02:27.005Z,98411.06
2022-09-28T09:03:47.880Z,98411.44
2022-09-28T09:05:17.419Z,98415.41
2022-09-28T09:06:54.518Z,98412.62
2022-09-28T09:08:38.248Z,98408.72
2022-09-28T09:10:28.486Z,98411.14
2022-09-28T09:12:15.665Z,98409.17
2022-09-28T09:13:47.762Z,98406.69
2022-09-28T09:15:07.503Z,98405.45
2022-09-28T09:16:39.651Z,98406.05
2022-09-28T09:18:26.782Z,98406.02
2022-09-28T09:19:57.688Z,98410.56
2022-09-28T09:21:36.582Z,98407.43
2022-09-28T09:23:03.642Z,98406.54
2022-09-28T09:24:35.813Z,98408.91
2022-09-28T09:25:57.672Z,98408.54
2022-09-28T09:27:14.089Z,98404.52
2022-09-28T09:28:46.846Z,98408.77
2022-09-28T09:30:23.889Z,98410.42
2022-09-28T09:31:52.987Z,98409.80
2022-09-28T09:33:07.011Z,98412.40
2022-09-28T09:34:34.024Z,98411.02
2022-09-28T09:36:27.858Z,98408.57
2022-09-28T09:38:24.177Z,98407.95
2022-09-28T09:40:06.168Z,98409.88
2022-09-28T09:42:13.967Z,98410.38
2022-09-28T09:44:20.359Z,98410.35
2022-09-28T09:45:44.707Z,98408.23
2022-09-28T09:47:17.877Z,98409.30
2022-09-28T09:49:07.668Z,98410.27
2022-09-28T09:50:41.043Z,98410.40
2022-09-28T09:52:28.230Z,98412.08
2022-09-28T09:53:51.393Z,98410.98
2022-09-28T09:55:30.081Z,98409.30
2022-09-28T09:57:28.992Z,98403.19
2022-09-28T09:58:59.532Z,98402.97
2022-09-28T10:00:19.285Z,98403.55
2022-09-28T10:01:38.804Z,98401.59
2022-09-28T10:02:58.284Z,98400.12
2022-09-28T10:04:37.613Z,98397.55
2022-09-28T10:06:03.345Z,98401.75
2022-09-28T10:07:16.091Z,98396.68
2022-09-28T10:08:25.356Z,98396.98
2022-09-28T10:09:57.940Z,98396.84
2022-09-28T10:11:32.435Z,98399.59
2022-09-28T10:12:40.846Z,98399.41
2022-09-28T10:13:52.799Z,98401.02
2022-09-28T10:15:34.268Z,98401.85
2022-09-28T10:16:57.398Z,98397.95
2022-09-28T10:18:28.239Z,98392.64
2022-09-28T10:19:57.487Z,98392.45
2022-09-28T10:21:30.414Z,98395.83
2022-09-28T10:22:41.614Z,98392.83
2022-09-28T10:23:57.251Z,98391.92
2022-09-28T10:25:11.794Z,98391.63
2022-09-28T10:26:28.219Z,98391.05
2022-09-28T10:27:42.365Z,98394.77
2022-09-28T10:29:03.405Z,98393.64
2022-09-28T10:30:26.327Z,98389.67
2022-09-28T10:31:55.071Z,98390.80
2022-09-28T10:33:36.385Z,98390.51
2022-09-28T10:34:48.735Z,98387.96
2022-09-28T10:36:07.366Z,98388.82
2022-09-28T10:37:16.347Z,98386.00
2022-09-28T10:38:50.100Z,98385.95
2022-09-28T10:40:33.455Z,98383.71
2022-09-28T10:41:52.623Z,98383.78
2022-09-28T10:43:35.243Z,98383.42
2022-09-28T10:45:22.558Z,98381.73
2022-09-28T10:46:31.477Z,98381.19
2022-09-28T10:47:40.372Z,98377.06
2022-09-28T10:49:05.867Z,98375.95
2022-09-28T10:50:33.418Z,98377.61
2022-09-28T10:51:58.295Z,98378.77
2022-09-28T10:53:22.901Z,98377.20
2022-09-28T10:54:58.394Z,98374.62
2022-09-28T10:56:25.207Z,98378.64
2022-09-28T10:57:41.596Z,98380.01
2022-09-28T10:58:50.001Z,98376.66
2022-09-28T11:00:09.400Z,98378.54
2022-09-28T11:01:25.773Z,98376.27
2022-09-28T11:02:36.906Z,98374.63
2022-09-28T11:04:07.951Z,98374.63
2022-09-28T11:05:24.531Z,98375.81
2022-09-28T11:06:41.179Z,98375.99
2022-09-28T11:07:50.126Z,98379.12
2022-09-28T11:09:03.145Z,98378.44
2022-09-28T11:10:22.046Z,98380.41
2022-09-28T11:11:34.580Z,98382.07
2022-09-28T11:12:46.683Z,98381.38
2022-09-28T11:14:02.321Z,98381.51
2022-09-28T11:15:36.764Z,98383.15
2022-09-28T11:16:45.215Z,98385.17
2022-09-28T11:17:54.657Z,98385.73
2022-09-28T11:19:26.171Z,98386.16
2022-09-28T11:20:37.832Z,98382.79
2022-09-28T11:21:47.771Z,98384.03
2022-09-28T11:23:00.170Z,98382.45
2022-09-28T11:24:27.188Z,98379.42
2022-09-28T11:25:39.665Z,98379.69
2022-09-28T11:26:55.142Z,98380.71
2022-09-28T11:28:06.219Z,98383.52
2022-09-28T11:29:37.401Z,98385.75
2022-09-28T11:31:05.140Z,98386.52
2022-09-28T11:32:20.921Z,98385.09
2022-09-28T11:33:51.139Z,98382.88
2022-09-28T11:36:07.767Z,98386.48
2022-09-28T11:37:39.932Z,98392.14
2022-09-28T11:39:25.076Z,98391.65
2022-09-28T11:40:50.863Z,98392.09
2022-09-28T11:42:17.922Z,98397.83
2022-09-28T11:43:27.355Z,98394.46
2022-09-28T11:45:22.118Z,98394.77
2022-09-28T11:46:41.665Z,98394.86
2022-09-28T11:48:04.427Z,98392.27
2022-09-28T11:49:29.457Z,98394.13
2022-09-28T11:50:46.592Z,98394.14
2022-09-28T11:51:58.858Z,98393.17
2022-09-28T11:53:18.709Z,98394.15
2022-09-28T11:54:30.657Z,98396.55
2022-09-28T11:55:57.635Z,98393.26
2022-09-28T11:57:06.765Z,98395.87
2022-09-28T11:58:26.572Z,98397.47
2022-09-28T11:59:36.979Z,98396.94
2022-09-28T12:01:02.277Z,98395.92
2022-09-28T12:02:55.864Z,98390.88
2022-09-28T12:04:28.333Z,98395.16
2022-09-28T12:05:42.446Z,98394.63
2022-09-28T12:07:13.074Z,98393.95
2022-09-28T12:08:29.377Z,98393.59
2022-09-28T12:10:15.640Z,98393.73
2022-09-28T12:11:37.898Z,98393.56
2022-09-28T12:13:06.214Z,98393.70
2022-09-28T12:14:37.364Z,98391.91
2022-09-28T12:16:23.484Z,98393.52
2022-09-28T12:17:53.260Z,98389.83
2022-09-28T12:19:29.122Z,98392.56
2022-09-28T12:20:41.843Z,98392.00
2022-09-28T12:22:00.547Z,98394.97
2022-09-28T12:23:24.464Z,98394.79
2022-09-28T12:24:44.345Z,98398.77
2022-09-28T12:25:57.660Z,98399.78
2022-09-28T12:27:16.355Z,98403.34
2022-09-28T12:28:29.580Z,98401.26
2022-09-28T12:29:51.833Z,98402.67
2022-09-28T12:31:03.380Z,98407.05
2022-09-28T12:32:18.106Z,98402.59
2022-09-28T12:33:27.179Z,98403.64
2022-09-28T12:34:36.167Z,98405.75
2022-09-28T12:35:57.540Z,98405.05
2022-09-28T12:37:35.692Z,98404.49
2022-09-28T12:39:27.186Z,98405.23
2022-09-28T12:40:56.490Z,98410.62
2022-09-28T12:42:25.501Z,98411.23
2022-09-28T12:43:50.228Z,98408.06
2022-09-28T12:45:42.888Z,98408.79
2022-09-28T12:47:34.488Z,98412.67
2022-09-28T12:49:21.656Z,98415.55
2022-09-28T12:50:38.530Z,98415.73
2022-09-28T12:52:04.304Z,98417.16
2022-09-28T12:53:51.719Z,98420.11
2022-09-28T12:55:21.616Z,98422.30
2022-09-28T12:56:58.203Z,98421.02
2022-09-28T12:58:28.436Z,98423.67
2022-09-28T12:59:55.836Z,98425.14
2022-09-28T13:01:52.893Z,98427.56
2022-09-28T13:03:22.721Z,98430.26
2022-09-28T13:04:49.114Z,98427.41
2022-09-28T13:06:33.718Z,98429.74
2022-09-28T13:08:05.554Z,98429.57
2022-09-28T13:09:21.777Z,98432.75
2022-09-28T13:10:48.089Z,98432.27
2022-09-28T13:12:17.290Z,98431.20
2022-09-28T13:13:33.281Z,98430.55
2022-09-28T13:15:10.802Z,98433.02
2022-09-28T13:16:37.137Z,98432.17
2022-09-28T13:18:18.200Z,98431.88
2022-09-28T13:19:48.165Z,98433.01
2022-09-28T13:21:13.023Z,98435.23
2022-09-28T13:22:31.833Z,98435.79
2022-09-28T13:23:47.448Z,98437.59
2022-09-28T13:24:57.096Z,98438.39
2022-09-28T13:26:31.062Z,98438.85
2022-09-28T13:28:04.660Z,98442.16
2022-09-28T13:29:15.880Z,98440.88
2022-09-28T13:30:25.475Z,98444.03
2022-09-28T13:31:37.151Z,98443.02
2022-09-28T13:32:49.202Z,98444.59
2022-09-28T13:33:57.376Z,98447.10
2022-09-28T13:35:08.254Z,98450.17
2022-09-28T13:36:35.571Z,98452.96
2022-09-28T13:37:46.828Z,98453.41
2022-09-28T13:38:57.694Z,98454.44
2022-09-28T13:40:08.093Z,98453.97
2022-09-28T13:41:17.769Z,98459.36
2022-09-28T13:42:31.432Z,98457.22
2022-09-28T13:44:14.518Z,98457.98
2022-09-28T13:45:36.781Z,98461.00
2022-09-28T13:46:53.760Z,98458.09
2022-09-28T13:48:30.035Z,98460.27
2022-09-28T13:49:48.432Z,98463.53
2022-09-28T13:51:41.805Z,98462.36
2022-09-28T13:53:22.107Z,98467.54
2022-09-28T13:55:10.012Z,98468.39
2022-09-28T13:56:37.295Z,98467.69
2022-09-28T13:57:59.526Z,98467.47
2022-09-28T13:59:19.203Z,98468.27
2022-09-28T14:00:51.945Z,98468.98
2022-09-28T14:02:20.050Z,98469.00
2022-09-28T14:04:07.673Z,98473.43
2022-09-28T14:05:40.240Z,98472.86
2022-09-28T14:06:59.620Z,98472.47
2022-09-28T14:08:26.437Z,98476.92
2022-09-28T14:10:11.712Z,98476.35
2022-09-28T14:11:27.915Z,98477.04
2022-09-28T14:12:37.774Z,98475.67
2022-09-28T14:13:46.881Z,98479.11
2022-09-28T14:14:58.684Z,98473.77
2022-09-28T14:16:26.154Z,98476.99
2022-09-28T14:17:56.785Z,98474.09
2022-09-28T14:19:18.351Z,98478.19
2022-09-28T14:20:31.585Z,98481.40
2022-09-28T14:22:05.703Z,98485.43
2022-09-28T14:23:37.238Z,98487.27
2022-09-28T14:25:01.585Z,98488.52
2022-09-28T14:26:43.521Z,98490.05
2022-09-28T14:28:15.892Z,98489.06
2022-09-28T14:29:32.275Z,98492.23
2022-09-28T14:30:46.583Z,98490.13
2022-09-28T14:31:55.186Z,98491.41
2022-09-28T14:33:05.364Z,98492.14
2022-09-28T14:34:35.894Z,98495.23
2022-09-28T14:35:51.393Z,98495.76
2022-09-28T14:37:24.191Z,98496.17
2022-09-28T14:39:13.017Z,98499.23
2022-09-28T14:41:07.460Z,98498.96
2022-09-28T14:42:24.207Z,98496.73
2022-09-28T14:43:48.445Z,98500.18
2022-09-28T14:45:09.925Z,98497.84
2022-09-28T14:46:19.373Z,98496.30
2022-09-28T14:47:38.050Z,98499.52
2022-09-28T14:48:56.922Z,98496.31
2022-09-28T14:50:26.210Z,98499.63
2022-09-28T14:51:44.627Z,98499.77
2022-09-28T14:53:15.653Z,98501.36
2022-09-28T14:54:25.817Z,98502.11
2022-09-28T14:55:52.672Z,98504.32
2022-09-28T14:57:10.047Z,98505.96
2022-09-28T14:58:24.218Z,98509.01
2022-09-28T14:59:37.999Z,98512.21
2022-09-28T15:00:46.106Z,98513.59
2022-09-28T15:02:20.960Z,98515.55
2022-09-28T15:03:32.728Z,98516.44
2022-09-28T15:04:45.048Z,98518.48
2022-09-28T15:05:57.028Z,98520.83
2022-09-28T15:07:06.997Z,98525.15
2022-09-28T15:08:17.751Z,98525.67
2022-09-28T15:09:34.348Z,98527.39
2022-09-28T15:10:52.096Z,98526.27
2022-09-28T15:12:19.789Z,98526.16
2022-09-28T15:13:30.749Z,98526.02
2022-09-28T15:15:04.732Z,98527.23
2022-09-28T15:16:25.559Z,98528.88
2022-09-28T15:17:40.093Z,98529.55
2022-09-28T15:19:35.637Z,98529.55
2022-09-28T15:20:45.013Z,98531.05
2022-09-28T15:21:55.193Z,98531.07
2022-09-28T15:23:03.864Z,98531.80
2022-09-28T15:24:37.134Z,98531.63
2022-09-28T15:25:56.780Z,98532.58
2022-09-28T15:27:13.140Z,98531.58
2022-09-28T15:28:25.814Z,98530.30
2022-09-28T15:29:35.803Z,98529.66
2022-09-28T15:30:45.035Z,98529.92
2022-09-28T15:31:55.304Z,98526.41
2022-09-28T15:33:28.114Z,98530.12
2022-09-28T15:34:53.369Z,98530.58
2022-09-28T15:36:08.977Z,98532.28
2022-09-28T15:37:23.727Z,98529.85
2022-09-28T15:38:37.111Z,98530.73
2022-09-28T15:39:49.818Z,98532.88
2022-09-28T15:40:58.104Z,98531.50
2022-09-28T15:42:08.647Z,98532.98
2022-09-28T15:43:39.862Z,98536.89
2022-09-28T15:45:16.984Z,98535.98
2022-09-28T15:46:28.125Z,98532.05